Huvudsida
METAR-TAF:

METAR-TAF

Flygplatser :

Notoddens, Norge

Notoddens flygplats. Tuven

latitud: 59-34N, longitud: 009-13E, höjd: 19 m

Aktuellt väderrapport

Denna rapport gjordes för 9 timmar och 23 minuter sedan, klockan 17:50 UTC
Vind 4 kt från väst/nordväst, varierande mellan väst/sydväst och nord
Temperatur -6°C
Fuktighet 93%
Tryck 996 hPa
Sikt 10 km eller mer
Få moln på en höjd av 2500 ft
Brutna moln på en höjd av 8000 ft

METAR: ENNO 181750Z 30004KT 240V350 9999 FEW025 BKN080 M06/M07 Q0996

Tid: 04:13 (03:13 UTC)

Väderprognos

Denna rapport gjordes för 16 timmar och 13 minuter sedan, klockan 11:00 UTC
Prognos gäller från 18 kl. 12 UTC till 18 kl. 17 UTC
Vind 5 kt från väst/nordväst
Sikt 10 km eller mer
Brutna moln på en höjd av 2000 ft
Sannolikhet 30% :
Temporärt
från 18 kl. 12 UTC till 18 kl. 17 UTC
Brutna moln på en höjd av 1200 ft

TAF: ENNO 181100Z 1812/1817 29005KT 9999 BKN020 PROB30 TEMPO 1812/1817 BKN012

Aktuella väderrapporter och prognoser från 4000 flygplatser (METAR- och TAF-rapporter).

De tillgängliga stationerna syns som gula och röda prickar på kartan.

För musen över prickarna för att se namnen på stationerna.

Klicka sedan för att få väderrapporter och prognoser.

För att ändra kartan: Klicka på de gröna knapparna med ett svart kors på för att zooma in; den gröna knappen med ett streck på för att zooma ut; eller på de gröna pilarna för angränsande kartor.


METAR-TAF: